KRKD/RKD METAR and TAF weather

Enter ICAO airport designator
Station Type Date Time Source
KRKD METAR 2021/05/15 01:56 UTC NOAA

KRKD 150156Z AUTO 00000KT 10SM CLR 11/07 A3012 RMK AO2 SLP198 T01110072


Station Type Date Time Source
KRKD Decoded METAR 2021/05/15 01:56 UTC NOAA

Rockland, Knox County Regional Airport, ME, United States (KRKD) 44-04N 069-06W
May 14, 2021 - 09:56 PM EDT / 2021.05.15 0156 UTC
Wind: Calm:0
Visibility: 10 mile(s):0
Sky conditions: clear
Temperature: 52.0 F (11.1 C)
Dew Point: 45.0 F (7.2 C)
Relative Humidity: 76%
Pressure (altimeter): 30.12 in. Hg (1019 hPa)
ob: KRKD 150156Z AUTO 00000KT 10SM CLR 11/07 A3012 RMK AO2 SLP198 T01110072
cycle: 2

Station Type Date Time Source
KRKD TAF 2021/05/14 19:15 UTC NOAA

TAF
AMD KRKD 141913Z 1419/1518 19008KT P6SM VCSH BKN100
TEMPO 1419/1422 25010G17KT
FM142200 23007KT P6SM SCT250

Example: see airport list